LiveATC.Net - Listen to live air traffic control over the Internet!


ICAO: MMMM  IATA: MLM   Airport: Morelia International Airport
City: Morelia
Country: Mexico   Continent: North America
MMMM METAR Weather: MMMM 151845Z 00000KT 6SM FEW025 SCT080 SCT250 22/13 A3030 RMK 8/532 HZY TCU FRMG NW
MMMM Flight Activity (FlightAware)

MMMM Tower
Feed Status: UP   Listeners: 0
Listen right in your browser - requires Flash (in browser, requires Flash)
Click here to listen with your own player (launches your MP3 player)
MMMM Tower Audio Archives
FacilityFrequency
Morelia Tower118.500

NOTICE

Unauthorized use prohibited. See LiveATC.net Terms of Service


Find LiveATC Audio Streams


Airport/ARTCC Code

Frequency Search
(e.g., 124.400, 128.75)
Site-wide search
 


Browse LiveATC Feeds
Top 50 LiveATC Feeds
Bad Weather Areas

LiveATC FAQ
Offer a LiveATC Feed
Contact LiveATC.net
Press Inquiries

LiveATC on iPhone
LiveATC on Android

Windows Phone
Windows 8/10

LiveATC Mobile
(Mobile browser)

ATC Audio Archives
Interesting Recordings

LiveATC Forums


Home Page
About LiveATC.net
Make a Donation
Terms of Use
Privacy Policy

Canadian Air Freqs

AIRMETs/SIGMETs

FAA Airport Status
Nat'l Airspace Status
Arrival Demand Charts


Server Software By:
Icecast.org
Liquidsoap